sensor_id;sensor_type;location;lat;lon;timestamp;pressure;altitude;pressure_sealevel;temperature;humidity
54459;BME280;40368;49.350;8.152;2023-11-21T00:00:03;995.2;;;13.31;64.37
54459;BME280;40368;49.350;8.152;2023-11-21T00:01:03;995.2;;;13.3;63.84
54459;BME280;40368;49.350;8.152;2023-11-21T00:02:03;995.2;;;13.31;63.73
54459;BME280;40368;49.350;8.152;2023-11-21T00:03:03;995.2;;;13.31;64.19
54459;BME280;40368;49.350;8.152;2023-11-21T00:04:03;995.2;;;13.33;64.16
54459;BME280;40368;49.350;8.152;2023-11-21T00:05:03;995.2;;;13.32;64.39
54459;BME280;40368;49.350;8.152;2023-11-21T00:06:03;995.1;;;13.32;63.9
54459;BME280;40368;49.350;8.152;2023-11-21T00:07:03;995.2;;;13.33;64.12
54459;BME280;40368;49.350;8.152;2023-11-21T00:08:03;995.1;;;13.36;63.61
54459;BME280;40368;49.350;8.152;2023-11-21T00:09:03;995.2;;;13.36;64.21
54459;BME280;40368;49.350;8.152;2023-11-21T00:10:04;995.2;;;13.36;64.21
54459;BME280;40368;49.350;8.152;2023-11-21T00:11:03;995.2;;;13.35;63.64
54459;BME280;40368;49.350;8.152;2023-11-21T00:12:03;995.1;;;13.37;63.65
54459;BME280;40368;49.350;8.152;2023-11-21T00:13:03;995.2;;;13.38;63.63
54459;BME280;40368;49.350;8.152;2023-11-21T00:14:03;995.1;;;13.39;64.02
54459;BME280;40368;49.350;8.152;2023-11-21T00:15:04;995.2;;;13.39;63.83
54459;BME280;40368;49.350;8.152;2023-11-21T00:16:03;995.2;;;13.38;64.2
54459;BME280;40368;49.350;8.152;2023-11-21T00:17:03;995.2;;;13.37;63.9
54459;BME280;40368;49.350;8.152;2023-11-21T00:18:03;995.2;;;13.38;64.13
54459;BME280;40368;49.350;8.152;2023-11-21T00:19:03;995.2;;;13.39;63.99
54459;BME280;40368;49.350;8.152;2023-11-21T00:20:03;995.2;;;13.39;63.84
54459;BME280;40368;49.350;8.152;2023-11-21T00:21:03;995.2;;;13.38;63.84
54459;BME280;40368;49.350;8.152;2023-11-21T00:22:03;995.2;;;13.38;64.08
54459;BME280;40368;49.350;8.152;2023-11-21T00:23:03;995.2;;;13.39;63.92
54459;BME280;40368;49.350;8.152;2023-11-21T00:24:03;995.1;;;13.41;63.77
54459;BME280;40368;49.350;8.152;2023-11-21T00:25:03;995.2;;;13.42;63.8
54459;BME280;40368;49.350;8.152;2023-11-21T00:26:03;995.2;;;13.43;63.71
54459;BME280;40368;49.350;8.152;2023-11-21T00:27:03;995.1;;;13.44;63.94
54459;BME280;40368;49.350;8.152;2023-11-21T00:28:03;995.1;;;13.4;64.47
54459;BME280;40368;49.350;8.152;2023-11-21T00:29:03;995.1;;;13.38;63.64
54459;BME280;40368;49.350;8.152;2023-11-21T00:30:04;995.1;;;13.38;63.95
54459;BME280;40368;49.350;8.152;2023-11-21T00:31:03;995.1;;;13.38;63.7
54459;BME280;40368;49.350;8.152;2023-11-21T00:32:03;995.1;;;13.41;63.65
54459;BME280;40368;49.350;8.152;2023-11-21T00:33:03;995.1;;;13.4;63.98
54459;BME280;40368;49.350;8.152;2023-11-21T00:34:03;995.1;;;13.41;63.58
54459;BME280;40368;49.350;8.152;2023-11-21T00:35:03;995.1;;;13.42;63.68
54459;BME280;40368;49.350;8.152;2023-11-21T00:36:03;995.1;;;13.41;63.92
54459;BME280;40368;49.350;8.152;2023-11-21T00:37:03;995.1;;;13.41;63.79
54459;BME280;40368;49.350;8.152;2023-11-21T00:38:03;995.1;;;13.4;64.12
54459;BME280;40368;49.350;8.152;2023-11-21T00:39:03;995.1;;;13.41;64.17
54459;BME280;40368;49.350;8.152;2023-11-21T00:40:03;995;;;13.4;64.19
54459;BME280;40368;49.350;8.152;2023-11-21T00:41:03;995.1;;;13.38;64.29
54459;BME280;40368;49.350;8.152;2023-11-21T00:42:03;995;;;13.38;64.12
54459;BME280;40368;49.350;8.152;2023-11-21T00:43:03;995.1;;;13.38;64.41
54459;BME280;40368;49.350;8.152;2023-11-21T00:44:03;995;;;13.37;64.58
54459;BME280;40368;49.350;8.152;2023-11-21T00:45:03;995.1;;;13.37;64.27
54459;BME280;40368;49.350;8.152;2023-11-21T00:46:03;995.1;;;13.37;64.36
54459;BME280;40368;49.350;8.152;2023-11-21T00:47:03;995.1;;;13.39;63.6
54459;BME280;40368;49.350;8.152;2023-11-21T00:48:03;995;;;13.39;64.36
54459;BME280;40368;49.350;8.152;2023-11-21T00:49:03;995.1;;;13.39;64.4
54459;BME280;40368;49.350;8.152;2023-11-21T00:50:03;995;;;13.38;64.38
54459;BME280;40368;49.350;8.152;2023-11-21T00:51:03;995;;;13.38;64.39
54459;BME280;40368;49.350;8.152;2023-11-21T00:52:03;995.1;;;13.39;64.08
54459;BME280;40368;49.350;8.152;2023-11-21T00:53:04;995.1;;;13.39;64.29
54459;BME280;40368;49.350;8.152;2023-11-21T00:54:03;995;;;13.4;64.25
54459;BME280;40368;49.350;8.152;2023-11-21T00:55:03;995;;;13.41;63.65
54459;BME280;40368;49.350;8.152;2023-11-21T00:56:03;995;;;13.39;64.11
54459;BME280;40368;49.350;8.152;2023-11-21T00:57:04;995;;;13.35;64.53
54459;BME280;40368;49.350;8.152;2023-11-21T00:58:04;995;;;13.31;64.46
54459;BME280;40368;49.350;8.152;2023-11-21T00:59:03;995;;;13.32;64.06
54459;BME280;40368;49.350;8.152;2023-11-21T01:00:03;995;;;13.28;65.17
54459;BME280;40368;49.350;8.152;2023-11-21T01:01:03;995;;;13.23;64.77
54459;BME280;40368;49.350;8.152;2023-11-21T01:02:03;995;;;13.23;64.7
54459;BME280;40368;49.350;8.152;2023-11-21T01:03:04;995;;;13.24;65.12
54459;BME280;40368;49.350;8.152;2023-11-21T01:04:04;995;;;13.23;65.51
54459;BME280;40368;49.350;8.152;2023-11-21T01:05:04;995;;;13.2;65.18
54459;BME280;40368;49.350;8.152;2023-11-21T01:06:03;995;;;13.19;64.89
54459;BME280;40368;49.350;8.152;2023-11-21T01:07:03;995.1;;;13.16;65.81
54459;BME280;40368;49.350;8.152;2023-11-21T01:08:03;995;;;13.16;65.19
54459;BME280;40368;49.350;8.152;2023-11-21T01:09:03;995;;;13.15;65.28
54459;BME280;40368;49.350;8.152;2023-11-21T01:10:03;995;;;13.17;64.87
54459;BME280;40368;49.350;8.152;2023-11-21T01:11:03;995;;;13.2;64.99
54459;BME280;40368;49.350;8.152;2023-11-21T01:12:04;995;;;13.19;64.96
54459;BME280;40368;49.350;8.152;2023-11-21T01:13:02;995;;;13.18;65.37
54459;BME280;40368;49.350;8.152;2023-11-21T01:14:03;995;;;13.17;65.03
54459;BME280;40368;49.350;8.152;2023-11-21T01:15:03;995;;;13.16;65.24
54459;BME280;40368;49.350;8.152;2023-11-21T01:16:03;995;;;13.16;65.14
54459;BME280;40368;49.350;8.152;2023-11-21T01:17:03;995;;;13.16;65.04
54459;BME280;40368;49.350;8.152;2023-11-21T01:18:03;995;;;13.17;64.77
54459;BME280;40368;49.350;8.152;2023-11-21T01:19:03;995;;;13.19;65.04
54459;BME280;40368;49.350;8.152;2023-11-21T01:20:04;994.9;;;13.2;65.26
54459;BME280;40368;49.350;8.152;2023-11-21T01:21:03;995;;;13.14;65.59
54459;BME280;40368;49.350;8.152;2023-11-21T01:22:04;995;;;13.11;65.49
54459;BME280;40368;49.350;8.152;2023-11-21T01:23:04;995;;;13.07;65.65
54459;BME280;40368;49.350;8.152;2023-11-21T01:24:03;994.9;;;13.06;65.86
54459;BME280;40368;49.350;8.152;2023-11-21T01:25:03;994.9;;;13.09;65.24
54459;BME280;40368;49.350;8.152;2023-11-21T01:26:03;995;;;13.14;64.97
54459;BME280;40368;49.350;8.152;2023-11-21T01:27:03;995;;;13.16;64.72
54459;BME280;40368;49.350;8.152;2023-11-21T01:28:03;995;;;13.16;65.17
54459;BME280;40368;49.350;8.152;2023-11-21T01:29:03;994.9;;;13.17;64.68
54459;BME280;40368;49.350;8.152;2023-11-21T01:30:03;995;;;13.19;64.82
54459;BME280;40368;49.350;8.152;2023-11-21T01:31:03;995;;;13.21;64.82
54459;BME280;40368;49.350;8.152;2023-11-21T01:32:03;995;;;13.23;64.12
54459;BME280;40368;49.350;8.152;2023-11-21T01:33:03;995;;;13.24;64.62
54459;BME280;40368;49.350;8.152;2023-11-21T01:34:03;995;;;13.24;64.67
54459;BME280;40368;49.350;8.152;2023-11-21T01:35:03;995;;;13.25;64.16
54459;BME280;40368;49.350;8.152;2023-11-21T01:36:04;995.1;;;13.26;64.44
54459;BME280;40368;49.350;8.152;2023-11-21T01:37:03;995.1;;;13.25;64.42
54459;BME280;40368;49.350;8.152;2023-11-21T01:38:03;995.1;;;13.26;64.62
54459;BME280;40368;49.350;8.152;2023-11-21T01:39:03;995.1;;;13.26;64.44
54459;BME280;40368;49.350;8.152;2023-11-21T01:40:04;995.1;;;13.25;64.62
54459;BME280;40368;49.350;8.152;2023-11-21T01:41:03;995.1;;;13.26;64.42
54459;BME280;40368;49.350;8.152;2023-11-21T01:42:03;995.1;;;13.27;64.53
54459;BME280;40368;49.350;8.152;2023-11-21T01:43:03;995.1;;;13.27;64.55
54459;BME280;40368;49.350;8.152;2023-11-21T01:44:04;995.1;;;13.28;64.72
54459;BME280;40368;49.350;8.152;2023-11-21T01:45:04;995.2;;;13.28;64.21
54459;BME280;40368;49.350;8.152;2023-11-21T01:46:03;995.2;;;13.28;64.57
54459;BME280;40368;49.350;8.152;2023-11-21T01:47:03;995.2;;;13.28;64.28
54459;BME280;40368;49.350;8.152;2023-11-21T01:48:03;995.2;;;13.29;64.36
54459;BME280;40368;49.350;8.152;2023-11-21T01:49:03;995.1;;;13.31;64.32
54459;BME280;40368;49.350;8.152;2023-11-21T01:50:04;995.1;;;13.31;64.44
54459;BME280;40368;49.350;8.152;2023-11-21T01:51:03;995.1;;;13.33;64.23
54459;BME280;40368;49.350;8.152;2023-11-21T01:52:03;995.1;;;13.32;64.77
54459;BME280;40368;49.350;8.152;2023-11-21T01:53:03;995.1;;;13.32;64.4
54459;BME280;40368;49.350;8.152;2023-11-21T01:54:03;995.2;;;13.32;64.38
54459;BME280;40368;49.350;8.152;2023-11-21T01:55:03;995.2;;;13.34;63.81
54459;BME280;40368;49.350;8.152;2023-11-21T01:56:03;995.1;;;13.36;64.05
54459;BME280;40368;49.350;8.152;2023-11-21T01:57:03;995.2;;;13.38;64.45
54459;BME280;40368;49.350;8.152;2023-11-21T01:58:03;995.2;;;13.39;64.1
54459;BME280;40368;49.350;8.152;2023-11-21T01:59:03;995.2;;;13.41;64.12
54459;BME280;40368;49.350;8.152;2023-11-21T02:00:03;995.2;;;13.41;63.49
54459;BME280;40368;49.350;8.152;2023-11-21T02:01:03;995.2;;;13.42;63.65
54459;BME280;40368;49.350;8.152;2023-11-21T02:02:04;995.2;;;13.44;63.79
54459;BME280;40368;49.350;8.152;2023-11-21T02:03:03;995.2;;;13.42;63.4
54459;BME280;40368;49.350;8.152;2023-11-21T02:04:03;995.2;;;13.43;63.65
54459;BME280;40368;49.350;8.152;2023-11-21T02:05:03;995.2;;;13.42;63.8
54459;BME280;40368;49.350;8.152;2023-11-21T02:06:03;995.2;;;13.42;64.05
54459;BME280;40368;49.350;8.152;2023-11-21T02:07:03;995.2;;;13.42;63.47
54459;BME280;40368;49.350;8.152;2023-11-21T02:08:03;995.2;;;13.43;63.5
54459;BME280;40368;49.350;8.152;2023-11-21T02:09:03;995.1;;;13.44;63.2
54459;BME280;40368;49.350;8.152;2023-11-21T02:10:03;995.2;;;13.44;63.22
54459;BME280;40368;49.350;8.152;2023-11-21T02:11:03;995.1;;;13.45;63.64
54459;BME280;40368;49.350;8.152;2023-11-21T02:12:03;995.2;;;13.46;63.6
54459;BME280;40368;49.350;8.152;2023-11-21T02:13:03;995.1;;;13.45;63.5
54459;BME280;40368;49.350;8.152;2023-11-21T02:14:04;995.2;;;13.46;63.78
54459;BME280;40368;49.350;8.152;2023-11-21T02:15:03;995.2;;;13.46;63.49
54459;BME280;40368;49.350;8.152;2023-11-21T02:16:03;995.2;;;13.45;64.39
54459;BME280;40368;49.350;8.152;2023-11-21T02:17:03;995.2;;;13.45;63.25
54459;BME280;40368;49.350;8.152;2023-11-21T02:18:03;995.2;;;13.45;64.1
54459;BME280;40368;49.350;8.152;2023-11-21T02:19:03;995.2;;;13.41;63.94
54459;BME280;40368;49.350;8.152;2023-11-21T02:20:04;995.2;;;13.41;63.56
54459;BME280;40368;49.350;8.152;2023-11-21T02:21:03;995.2;;;13.42;63.77
54459;BME280;40368;49.350;8.152;2023-11-21T02:22:03;995.2;;;13.43;63.68
54459;BME280;40368;49.350;8.152;2023-11-21T02:23:03;995.1;;;13.42;63.67
54459;BME280;40368;49.350;8.152;2023-11-21T02:24:03;995.2;;;13.43;64.13
54459;BME280;40368;49.350;8.152;2023-11-21T02:25:03;995.1;;;13.42;63.89
54459;BME280;40368;49.350;8.152;2023-11-21T02:26:03;995.2;;;13.43;63.9
54459;BME280;40368;49.350;8.152;2023-11-21T02:27:04;995.2;;;13.44;64.04
54459;BME280;40368;49.350;8.152;2023-11-21T02:28:03;995.2;;;13.43;63.29
54459;BME280;40368;49.350;8.152;2023-11-21T02:29:03;995.2;;;13.45;63.26
54459;BME280;40368;49.350;8.152;2023-11-21T02:30:03;995.2;;;13.46;63.36
54459;BME280;40368;49.350;8.152;2023-11-21T02:31:03;995.2;;;13.46;63.16
54459;BME280;40368;49.350;8.152;2023-11-21T02:32:03;995.2;;;13.45;62.89
54459;BME280;40368;49.350;8.152;2023-11-21T02:33:03;995.2;;;13.47;62.79
54459;BME280;40368;49.350;8.152;2023-11-21T02:34:03;995.2;;;13.47;63.06
54459;BME280;40368;49.350;8.152;2023-11-21T02:35:03;995.2;;;13.48;63.01
54459;BME280;40368;49.350;8.152;2023-11-21T02:36:04;995.2;;;13.47;63.02
54459;BME280;40368;49.350;8.152;2023-11-21T02:37:03;995.2;;;13.46;63.05
54459;BME280;40368;49.350;8.152;2023-11-21T02:38:03;995.2;;;13.48;62.84
54459;BME280;40368;49.350;8.152;2023-11-21T02:39:03;995.2;;;13.48;63.89
54459;BME280;40368;49.350;8.152;2023-11-21T02:40:03;995.1;;;13.45;63.99
54459;BME280;40368;49.350;8.152;2023-11-21T02:41:03;995.1;;;13.45;63.36
54459;BME280;40368;49.350;8.152;2023-11-21T02:42:03;995.1;;;13.45;64.05
54459;BME280;40368;49.350;8.152;2023-11-21T02:43:03;995.2;;;13.44;63.99
54459;BME280;40368;49.350;8.152;2023-11-21T02:44:03;995.1;;;13.42;63.91
54459;BME280;40368;49.350;8.152;2023-11-21T02:45:03;995.1;;;13.41;63.34
54459;BME280;40368;49.350;8.152;2023-11-21T02:46:03;995.1;;;13.42;64
54459;BME280;40368;49.350;8.152;2023-11-21T02:47:03;995.1;;;13.41;63.53
54459;BME280;40368;49.350;8.152;2023-11-21T02:48:03;995.1;;;13.4;63.75
54459;BME280;40368;49.350;8.152;2023-11-21T02:49:04;995.1;;;13.4;63.86
54459;BME280;40368;49.350;8.152;2023-11-21T02:50:04;995.1;;;13.39;64.44
54459;BME280;40368;49.350;8.152;2023-11-21T02:51:03;995.1;;;13.38;64.1
54459;BME280;40368;49.350;8.152;2023-11-21T02:52:04;995.2;;;13.38;64.18
54459;BME280;40368;49.350;8.152;2023-11-21T02:53:02;995.1;;;13.4;63.69
54459;BME280;40368;49.350;8.152;2023-11-21T02:54:03;995.1;;;13.4;64.08
54459;BME280;40368;49.350;8.152;2023-11-21T02:55:04;995.2;;;13.4;64.1
54459;BME280;40368;49.350;8.152;2023-11-21T02:56:03;995.2;;;13.38;64.09
54459;BME280;40368;49.350;8.152;2023-11-21T02:57:03;995.2;;;13.37;64.34
54459;BME280;40368;49.350;8.152;2023-11-21T02:58:03;995.2;;;13.35;64.42
54459;BME280;40368;49.350;8.152;2023-11-21T02:59:03;995.2;;;13.35;64.36
54459;BME280;40368;49.350;8.152;2023-11-21T03:00:03;995.2;;;13.34;64.43
54459;BME280;40368;49.350;8.152;2023-11-21T03:01:03;995.2;;;13.32;64.84
54459;BME280;40368;49.350;8.152;2023-11-21T03:02:03;995.2;;;13.31;64.69
54459;BME280;40368;49.350;8.152;2023-11-21T03:03:03;995.2;;;13.3;64.65
54459;BME280;40368;49.350;8.152;2023-11-21T03:04:03;995.2;;;13.27;64.88
54459;BME280;40368;49.350;8.152;2023-11-21T03:05:03;995.2;;;13.24;65.03
54459;BME280;40368;49.350;8.152;2023-11-21T03:06:04;995.2;;;13.23;65.12
54459;BME280;40368;49.350;8.152;2023-11-21T03:07:03;995.2;;;13.25;64.53
54459;BME280;40368;49.350;8.152;2023-11-21T03:08:03;995.2;;;13.27;64.91
54459;BME280;40368;49.350;8.152;2023-11-21T03:09:03;995.2;;;13.28;64.62
54459;BME280;40368;49.350;8.152;2023-11-21T03:10:04;995.2;;;13.28;64.78
54459;BME280;40368;49.350;8.152;2023-11-21T03:11:03;995.2;;;13.28;65.03
54459;BME280;40368;49.350;8.152;2023-11-21T03:12:03;995.2;;;13.29;64.62
54459;BME280;40368;49.350;8.152;2023-11-21T03:13:03;995.2;;;13.29;64.99
54459;BME280;40368;49.350;8.152;2023-11-21T03:14:03;995.2;;;13.28;64.97
54459;BME280;40368;49.350;8.152;2023-11-21T03:15:03;995.2;;;13.3;64.6
54459;BME280;40368;49.350;8.152;2023-11-21T03:16:03;995.2;;;13.28;65.05
54459;BME280;40368;49.350;8.152;2023-11-21T03:17:03;995.1;;;13.24;65.23
54459;BME280;40368;49.350;8.152;2023-11-21T03:18:03;995.2;;;13.23;64.78
54459;BME280;40368;49.350;8.152;2023-11-21T03:19:03;995.1;;;13.23;65.28
54459;BME280;40368;49.350;8.152;2023-11-21T03:20:03;995.2;;;13.24;65.01
54459;BME280;40368;49.350;8.152;2023-11-21T03:21:03;995.2;;;13.24;64.29
54459;BME280;40368;49.350;8.152;2023-11-21T03:22:03;995.2;;;13.25;64.72
54459;BME280;40368;49.350;8.152;2023-11-21T03:23:03;995.2;;;13.25;64.62
54459;BME280;40368;49.350;8.152;2023-11-21T03:24:03;995.2;;;13.27;65.07
54459;BME280;40368;49.350;8.152;2023-11-21T03:25:03;995.2;;;13.28;65.19
54459;BME280;40368;49.350;8.152;2023-11-21T03:26:03;995.2;;;13.26;65.51
54459;BME280;40368;49.350;8.152;2023-11-21T03:27:04;995.2;;;13.25;64.87
54459;BME280;40368;49.350;8.152;2023-11-21T03:28:03;995.2;;;13.25;65.39
54459;BME280;40368;49.350;8.152;2023-11-21T03:29:03;995.2;;;13.24;64.7
54459;BME280;40368;49.350;8.152;2023-11-21T03:30:03;995.2;;;13.25;64.95
54459;BME280;40368;49.350;8.152;2023-11-21T03:31:04;995.2;;;13.26;64.86
54459;BME280;40368;49.350;8.152;2023-11-21T03:32:03;995.2;;;13.25;64.84
54459;BME280;40368;49.350;8.152;2023-11-21T03:33:03;995.2;;;13.24;64.59
54459;BME280;40368;49.350;8.152;2023-11-21T03:34:03;995.3;;;13.23;65.14
54459;BME280;40368;49.350;8.152;2023-11-21T03:35:04;995.3;;;13.25;64.42
54459;BME280;40368;49.350;8.152;2023-11-21T03:36:04;995.3;;;13.25;65.24
54459;BME280;40368;49.350;8.152;2023-11-21T03:37:03;995.3;;;13.23;65.32
54459;BME280;40368;49.350;8.152;2023-11-21T03:38:03;995.3;;;13.23;64.85
54459;BME280;40368;49.350;8.152;2023-11-21T03:39:03;995.4;;;13.24;64.57
54459;BME280;40368;49.350;8.152;2023-11-21T03:40:04;995.4;;;13.24;64.77
54459;BME280;40368;49.350;8.152;2023-11-21T03:41:04;995.3;;;13.24;64.92
54459;BME280;40368;49.350;8.152;2023-11-21T03:42:04;995.3;;;13.23;64.72
54459;BME280;40368;49.350;8.152;2023-11-21T03:43:03;995.4;;;13.23;64.8
54459;BME280;40368;49.350;8.152;2023-11-21T03:44:04;995.4;;;13.23;65.04
54459;BME280;40368;49.350;8.152;2023-11-21T03:45:03;995.4;;;13.23;64.9
54459;BME280;40368;49.350;8.152;2023-11-21T03:46:03;995.4;;;13.22;65.21
54459;BME280;40368;49.350;8.152;2023-11-21T03:47:03;995.3;;;13.22;65.14
54459;BME280;40368;49.350;8.152;2023-11-21T03:48:03;995.4;;;13.22;64.99
54459;BME280;40368;49.350;8.152;2023-11-21T03:49:03;995.3;;;13.21;65.24
54459;BME280;40368;49.350;8.152;2023-11-21T03:50:03;995.3;;;13.22;64.75
54459;BME280;40368;49.350;8.152;2023-11-21T03:51:03;995.3;;;13.24;64.94
54459;BME280;40368;49.350;8.152;2023-11-21T03:52:04;995.3;;;13.23;64.69
54459;BME280;40368;49.350;8.152;2023-11-21T03:53:04;995.3;;;13.23;64.93
54459;BME280;40368;49.350;8.152;2023-11-21T03:54:03;995.4;;;13.22;65.26
54459;BME280;40368;49.350;8.152;2023-11-21T03:55:03;995.3;;;13.21;65.26
54459;BME280;40368;49.350;8.152;2023-11-21T03:57:05;995.4;;;13.22;65.26
54459;BME280;40368;49.350;8.152;2023-11-21T03:58:03;995.4;;;13.22;64.89
54459;BME280;40368;49.350;8.152;2023-11-21T03:59:03;995.4;;;13.22;64.7
54459;BME280;40368;49.350;8.152;2023-11-21T04:00:04;995.4;;;13.23;64.99
54459;BME280;40368;49.350;8.152;2023-11-21T04:01:03;995.4;;;13.22;64.61
54459;BME280;40368;49.350;8.152;2023-11-21T04:02:03;995.4;;;13.22;64.87
54459;BME280;40368;49.350;8.152;2023-11-21T04:03:03;995.4;;;13.21;64.98
54459;BME280;40368;49.350;8.152;2023-11-21T04:04:03;995.4;;;13.21;64.92
54459;BME280;40368;49.350;8.152;2023-11-21T04:05:03;995.4;;;13.21;65.05
54459;BME280;40368;49.350;8.152;2023-11-21T04:06:04;995.4;;;13.21;65.19
54459;BME280;40368;49.350;8.152;2023-11-21T04:07:03;995.4;;;13.21;65.53
54459;BME280;40368;49.350;8.152;2023-11-21T04:08:03;995.4;;;13.2;65.32
54459;BME280;40368;49.350;8.152;2023-11-21T04:09:03;995.4;;;13.2;65.26
54459;BME280;40368;49.350;8.152;2023-11-21T04:10:03;995.4;;;13.19;65.43
54459;BME280;40368;49.350;8.152;2023-11-21T04:11:04;995.4;;;13.18;65.37
54459;BME280;40368;49.350;8.152;2023-11-21T04:12:04;995.5;;;13.19;65
54459;BME280;40368;49.350;8.152;2023-11-21T04:13:03;995.5;;;13.18;65.25
54459;BME280;40368;49.350;8.152;2023-11-21T04:14:03;995.5;;;13.18;65.41
54459;BME280;40368;49.350;8.152;2023-11-21T04:15:03;995.5;;;13.18;65.61
54459;BME280;40368;49.350;8.152;2023-11-21T04:16:03;995.5;;;13.19;65.27
54459;BME280;40368;49.350;8.152;2023-11-21T04:17:03;995.5;;;13.19;65.62
54459;BME280;40368;49.350;8.152;2023-11-21T04:18:04;995.5;;;13.19;65.4
54459;BME280;40368;49.350;8.152;2023-11-21T04:19:04;995.5;;;13.19;65.52
54459;BME280;40368;49.350;8.152;2023-11-21T04:20:04;995.5;;;13.19;65.33
54459;BME280;40368;49.350;8.152;2023-11-21T04:21:03;995.5;;;13.2;65.53
54459;BME280;40368;49.350;8.152;2023-11-21T04:22:03;995.5;;;13.19;65.51
54459;BME280;40368;49.350;8.152;2023-11-21T04:23:03;995.5;;;13.17;65.31
54459;BME280;40368;49.350;8.152;2023-11-21T04:24:04;995.5;;;13.15;65.74
54459;BME280;40368;49.350;8.152;2023-11-21T04:25:03;995.5;;;13.15;65.56
54459;BME280;40368;49.350;8.152;2023-11-21T04:26:03;995.5;;;13.14;65.65
54459;BME280;40368;49.350;8.152;2023-11-21T04:27:03;995.5;;;13.15;65.07
54459;BME280;40368;49.350;8.152;2023-11-21T04:28:03;995.5;;;13.16;65.35
54459;BME280;40368;49.350;8.152;2023-11-21T04:29:03;995.5;;;13.16;65.23
54459;BME280;40368;49.350;8.152;2023-11-21T04:30:03;995.5;;;13.17;64.95
54459;BME280;40368;49.350;8.152;2023-11-21T04:31:04;995.5;;;13.21;64.51
54459;BME280;40368;49.350;8.152;2023-11-21T04:32:03;995.5;;;13.24;64.26
54459;BME280;40368;49.350;8.152;2023-11-21T04:33:02;995.5;;;13.25;64.08
54459;BME280;40368;49.350;8.152;2023-11-21T04:34:03;995.5;;;13.27;64.34
54459;BME280;40368;49.350;8.152;2023-11-21T04:35:03;995.6;;;13.29;64.77
54459;BME280;40368;49.350;8.152;2023-11-21T04:36:04;995.6;;;13.3;64.45
54459;BME280;40368;49.350;8.152;2023-11-21T04:37:03;995.6;;;13.3;64.4
54459;BME280;40368;49.350;8.152;2023-11-21T04:38:03;995.6;;;13.29;64.19
54459;BME280;40368;49.350;8.152;2023-11-21T04:39:04;995.6;;;13.29;64.93
54459;BME280;40368;49.350;8.152;2023-11-21T04:40:03;995.6;;;13.29;64.48
54459;BME280;40368;49.350;8.152;2023-11-21T04:41:04;995.6;;;13.29;64.12
54459;BME280;40368;49.350;8.152;2023-11-21T04:42:03;995.7;;;13.29;64.75
54459;BME280;40368;49.350;8.152;2023-11-21T04:43:04;995.7;;;13.28;65.07
54459;BME280;40368;49.350;8.152;2023-11-21T04:44:03;995.7;;;13.25;64.83
54459;BME280;40368;49.350;8.152;2023-11-21T04:45:04;995.6;;;13.24;64.91
54459;BME280;40368;49.350;8.152;2023-11-21T04:46:03;995.7;;;13.25;64.34
54459;BME280;40368;49.350;8.152;2023-11-21T04:47:03;995.7;;;13.24;64.94
54459;BME280;40368;49.350;8.152;2023-11-21T04:49:03;995.7;;;13.23;64.77
54459;BME280;40368;49.350;8.152;2023-11-21T04:50:03;995.7;;;13.24;65.03
54459;BME280;40368;49.350;8.152;2023-11-21T04:51:03;995.8;;;13.25;65.22
54459;BME280;40368;49.350;8.152;2023-11-21T04:52:03;995.8;;;13.24;65
54459;BME280;40368;49.350;8.152;2023-11-21T04:53:03;995.8;;;13.23;64.63
54459;BME280;40368;49.350;8.152;2023-11-21T04:54:03;995.8;;;13.24;64.17
54459;BME280;40368;49.350;8.152;2023-11-21T04:55:04;995.8;;;13.26;64.12
54459;BME280;40368;49.350;8.152;2023-11-21T04:56:03;995.8;;;13.25;64.86
54459;BME280;40368;49.350;8.152;2023-11-21T04:57:03;995.8;;;13.26;65.08
54459;BME280;40368;49.350;8.152;2023-11-21T04:58:03;995.8;;;13.26;65.3
54459;BME280;40368;49.350;8.152;2023-11-21T04:59:03;995.8;;;13.26;64.65
54459;BME280;40368;49.350;8.152;2023-11-21T05:00:03;995.8;;;13.26;65.56
54459;BME280;40368;49.350;8.152;2023-11-21T05:01:03;995.8;;;13.25;65.57
54459;BME280;40368;49.350;8.152;2023-11-21T05:02:03;995.8;;;13.25;65.36
54459;BME280;40368;49.350;8.152;2023-11-21T05:03:03;995.9;;;13.25;65.36
54459;BME280;40368;49.350;8.152;2023-11-21T05:04:03;995.9;;;13.25;64.97
54459;BME280;40368;49.350;8.152;2023-11-21T05:05:03;995.9;;;13.25;65.08
54459;BME280;40368;49.350;8.152;2023-11-21T05:06:03;995.9;;;13.25;65.09
54459;BME280;40368;49.350;8.152;2023-11-21T05:07:03;995.9;;;13.25;64.46
54459;BME280;40368;49.350;8.152;2023-11-21T05:08:03;995.9;;;13.25;64.74
54459;BME280;40368;49.350;8.152;2023-11-21T05:09:03;995.9;;;13.26;64.78
54459;BME280;40368;49.350;8.152;2023-11-21T05:10:03;995.9;;;13.26;64.76
54459;BME280;40368;49.350;8.152;2023-11-21T05:11:03;995.9;;;13.26;64.9
54459;BME280;40368;49.350;8.152;2023-11-21T05:12:03;995.9;;;13.27;64.67
54459;BME280;40368;49.350;8.152;2023-11-21T05:13:03;995.9;;;13.26;65.36
54459;BME280;40368;49.350;8.152;2023-11-21T05:14:03;995.9;;;13.24;64.95
54459;BME280;40368;49.350;8.152;2023-11-21T05:15:04;995.9;;;13.22;64.76
54459;BME280;40368;49.350;8.152;2023-11-21T05:16:03;996;;;13.22;64.9
54459;BME280;40368;49.350;8.152;2023-11-21T05:17:03;996;;;13.2;65.38
54459;BME280;40368;49.350;8.152;2023-11-21T05:18:03;996;;;13.2;65.48
54459;BME280;40368;49.350;8.152;2023-11-21T05:19:04;996;;;13.2;65.32
54459;BME280;40368;49.350;8.152;2023-11-21T05:20:04;996;;;13.2;65.45
54459;BME280;40368;49.350;8.152;2023-11-21T05:21:04;996;;;13.2;65.52
54459;BME280;40368;49.350;8.152;2023-11-21T05:22:03;996;;;13.2;65.4
54459;BME280;40368;49.350;8.152;2023-11-21T05:23:03;996.1;;;13.21;64.69
54459;BME280;40368;49.350;8.152;2023-11-21T05:24:03;996.1;;;13.21;65.79
54459;BME280;40368;49.350;8.152;2023-11-21T05:25:04;996.1;;;13.19;65.86
54459;BME280;40368;49.350;8.152;2023-11-21T05:26:03;996;;;13.18;65.65
54459;BME280;40368;49.350;8.152;2023-11-21T05:27:03;996;;;13.18;65.36
54459;BME280;40368;49.350;8.152;2023-11-21T05:28:08;996.1;;;13.19;65.22
54459;BME280;40368;49.350;8.152;2023-11-21T05:29:03;996.1;;;13.19;65.4
54459;BME280;40368;49.350;8.152;2023-11-21T05:30:03;996.2;;;13.19;65.1
54459;BME280;40368;49.350;8.152;2023-11-21T05:31:03;996.2;;;13.19;65.36
54459;BME280;40368;49.350;8.152;2023-11-21T05:32:03;996.2;;;13.2;65.75
54459;BME280;40368;49.350;8.152;2023-11-21T05:33:03;996.2;;;13.2;65.83
54459;BME280;40368;49.350;8.152;2023-11-21T05:34:03;996.2;;;13.19;65.66
54459;BME280;40368;49.350;8.152;2023-11-21T05:35:03;996.3;;;13.19;65.69